Time;durP1;ratioP1;P1;durP2;ratioP2;P2;SDS_P1;SDS_P2;PMS_P1;PMS_P2;Temp;Humidity;BMP_temperature;BMP_pressure;BME280_temperature;BME280_humidity;BME280_pressure;Samples;Min_cycle;Max_cycle;Signal;HPM_P1;HPM_P2
2022/10/07 00:02:10;;;;;;;0.50;0.50;;;;;;;;;;5027523;28;20227;-64
2022/10/07 00:04:43;;;;;;;3.30;0.90;;;;;;;;;;5026475;28;20224;-63
2022/10/07 00:07:11;;;;;;;0.87;0.83;;;;;;;;;;5027261;28;20204;-64
2022/10/07 00:09:38;;;;;;;1.37;1.13;;;;;;;;;;5026477;28;20750;-64
2022/10/07 00:12:05;;;;;;;4.63;0.80;;;;;;;;;;5026173;28;20616;-64
2022/10/07 00:14:32;;;;;;;2.00;1.27;;;;;;;;;;5026700;28;20690;-64
2022/10/07 00:17:00;;;;;;;0.80;0.80;;;;;;;;;;5026336;28;20205;-63
2022/10/07 00:19:27;;;;;;;1.57;0.90;;;;;;;;;;5023871;28;20211;-63
2022/10/07 00:21:55;;;;;;;0.80;0.80;;;;;;;;;;5026364;28;20212;-63
2022/10/07 00:24:22;;;;;;;0.90;0.90;;;;;;;;;;5026557;28;20211;-63
2022/10/07 00:26:49;;;;;;;0.97;0.90;;;;;;;;;;5026148;28;20241;-64
2022/10/07 00:29:16;;;;;;;1.20;1.10;;;;;;;;;;5026537;28;20220;-63
2022/10/07 00:31:49;;;;;;;3.23;1.00;;;;;;;;;;5029078;28;20204;-64
2022/10/07 00:34:18;;;;;;;2.10;1.17;;;;;;;;;;5030545;28;20219;-63
2022/10/07 00:36:45;;;;;;;1.10;1.10;;;;;;;;;;5030534;28;20227;-63
2022/10/07 00:39:13;;;;;;;4.80;1.17;;;;;;;;;;5029954;28;20270;-64
2022/10/07 00:41:42;;;;;;;1.70;1.00;;;;;;;;;;5030421;28;20205;-64
2022/10/07 00:44:36;;;;;;;0.90;0.90;;;;;;;;;;5030418;28;20205;-64
2022/10/07 00:47:05;;;;;;;4.30;1.17;;;;;;;;;;5030580;28;20208;-63
2022/10/07 00:49:39;;;;;;;1.17;1.10;;;;;;;;;;5029914;28;20829;-63
2022/10/07 00:52:06;;;;;;;0.87;0.87;;;;;;;;;;5030768;28;20252;-63
2022/10/07 00:54:34;;;;;;;0.93;0.90;;;;;;;;;;5029144;28;20211;-63
2022/10/07 00:57:01;;;;;;;4.90;1.00;;;;;;;;;;5030362;28;20204;-63
2022/10/07 00:59:28;;;;;;;2.67;1.07;;;;;;;;;;5029806;28;20208;-63
2022/10/07 01:01:55;;;;;;;1.17;1.07;;;;;;;;;;5030458;28;20231;-63
2022/10/07 01:04:22;;;;;;;0.73;0.73;;;;;;;;;;5029664;28;20611;-64
2022/10/07 01:06:50;;;;;;;0.97;0.97;;;;;;;;;;5029682;28;20208;-64
2022/10/07 01:09:19;;;;;;;0.80;0.80;;;;;;;;;;5029846;28;20235;-64
2022/10/07 01:12:03;;;;;;;1.10;1.00;;;;;;;;;;5029859;28;20227;-63
2022/10/07 01:14:35;;;;;;;0.73;0.73;;;;;;;;;;5026187;28;20219;-63
2022/10/07 01:17:05;;;;;;;1.00;0.90;;;;;;;;;;5029786;28;20204;-64
2022/10/07 01:19:49;;;;;;;1.23;0.93;;;;;;;;;;5028805;28;20714;-64
2022/10/07 01:22:25;;;;;;;5.83;0.77;;;;;;;;;;5028175;28;20226;-63
2022/10/07 01:24:57;;;;;;;1.97;0.80;;;;;;;;;;5029425;28;20214;-63
2022/10/07 01:27:26;;;;;;;3.83;0.83;;;;;;;;;;5029208;28;20229;-63
2022/10/07 01:29:55;;;;;;;2.27;1.10;;;;;;;;;;5029277;28;20239;-64
2022/10/07 01:32:24;;;;;;;0.80;0.80;;;;;;;;;;5027022;28;20208;-63
2022/10/07 01:34:53;;;;;;;0.53;0.53;;;;;;;;;;5029162;28;20201;-63
2022/10/07 01:37:22;;;;;;;4.20;1.10;;;;;;;;;;5028028;28;20219;-63
2022/10/07 01:39:51;;;;;;;1.50;0.80;;;;;;;;;;5029228;28;20631;-64
2022/10/07 01:42:19;;;;;;;3.57;1.27;;;;;;;;;;5028156;28;20211;-63
2022/10/07 01:44:49;;;;;;;1.00;0.90;;;;;;;;;;5029124;28;20211;-63
2022/10/07 01:47:16;;;;;;;0.93;0.70;;;;;;;;;;5029507;28;20204;-63
2022/10/07 01:49:44;;;;;;;2.40;0.73;;;;;;;;;;5028237;28;20313;-63
2022/10/07 01:52:31;;;;;;;1.53;0.80;;;;;;;;;;5028254;28;20208;-63
2022/10/07 01:55:07;;;;;;;2.40;0.87;;;;;;;;;;5026999;28;20682;-63
2022/10/07 01:57:41;;;;;;;1.17;0.90;;;;;;;;;;5028177;28;20211;-62
2022/10/07 02:00:11;;;;;;;0.80;0.80;;;;;;;;;;5028941;28;20208;-63
2022/10/07 02:02:49;;;;;;;1.90;1.23;;;;;;;;;;5028391;28;20208;-62
2022/10/07 02:05:22;;;;;;;2.33;1.23;;;;;;;;;;5028504;28;20300;-63
2022/10/07 02:07:58;;;;;;;1.67;1.13;;;;;;;;;;5028699;28;20547;-63
2022/10/07 02:10:28;;;;;;;3.87;1.33;;;;;;;;;;5028631;28;20224;-63
2022/10/07 02:12:58;;;;;;;5.60;1.03;;;;;;;;;;5028865;28;20209;-63
2022/10/07 02:15:27;;;;;;;2.53;1.00;;;;;;;;;;5027065;28;20216;-62
2022/10/07 02:17:56;;;;;;;0.70;0.70;;;;;;;;;;5028159;28;20204;-63
2022/10/07 02:20:25;;;;;;;3.23;0.90;;;;;;;;;;5028233;28;20548;-63
2022/10/07 02:22:53;;;;;;;2.27;0.70;;;;;;;;;;5027239;28;20212;-62
2022/10/07 02:25:21;;;;;;;0.77;0.77;;;;;;;;;;5028150;28;20694;-63
2022/10/07 02:27:49;;;;;;;1.00;1.00;;;;;;;;;;5028900;28;20236;-63
2022/10/07 02:30:17;;;;;;;0.70;0.70;;;;;;;;;;5027021;28;20614;-63
2022/10/07 02:32:49;;;;;;;0.77;0.50;;;;;;;;;;5028291;28;20215;-63
2022/10/07 02:35:19;;;;;;;1.50;0.90;;;;;;;;;;5027466;28;20207;-63
2022/10/07 02:37:48;;;;;;;1.07;0.80;;;;;;;;;;5027784;28;20214;-62
2022/10/07 02:40:15;;;;;;;1.27;1.17;;;;;;;;;;5027986;28;20212;-62
2022/10/07 02:42:48;;;;;;;1.17;0.70;;;;;;;;;;5027840;28;20862;-63
2022/10/07 02:45:18;;;;;;;2.00;1.10;;;;;;;;;;5028383;28;20209;-62
2022/10/07 02:47:49;;;;;;;2.63;1.53;;;;;;;;;;5028237;28;20212;-62
2022/10/07 02:50:19;;;;;;;0.97;0.80;;;;;;;;;;5027839;28;20230;-64
2022/10/07 02:52:47;;;;;;;0.93;0.87;;;;;;;;;;5020454;28;20219;-63
2022/10/07 02:55:16;;;;;;;2.80;1.00;;;;;;;;;;5026695;28;20677;-63
2022/10/07 02:57:45;;;;;;;0.60;0.60;;;;;;;;;;5016448;28;20582;-63
2022/10/07 03:00:13;;;;;;;3.30;0.90;;;;;;;;;;5027349;28;20223;-63
2022/10/07 03:02:43;;;;;;;4.00;1.20;;;;;;;;;;5027778;28;20202;-63
2022/10/07 03:05:12;;;;;;;0.70;0.70;;;;;;;;;;5028002;28;20224;-63
2022/10/07 03:07:39;;;;;;;3.77;1.33;;;;;;;;;;5027886;28;20204;-63
2022/10/07 03:10:08;;;;;;;5.23;1.00;;;;;;;;;;5027802;28;20238;-62
2022/10/07 03:12:35;;;;;;;0.70;0.70;;;;;;;;;;5027724;28;20212;-62
2022/10/07 03:15:02;;;;;;;2.03;1.10;;;;;;;;;;5027371;28;20219;-62
2022/10/07 03:17:29;;;;;;;1.03;0.93;;;;;;;;;;5027690;28;20200;-62
2022/10/07 03:19:56;;;;;;;2.63;1.00;;;;;;;;;;5027589;28;20196;-61
2022/10/07 03:22:25;;;;;;;1.53;0.90;;;;;;;;;;5027211;28;20216;-61
2022/10/07 03:24:53;;;;;;;0.97;0.93;;;;;;;;;;5027301;28;20208;-61
2022/10/07 03:27:20;;;;;;;0.73;0.73;;;;;;;;;;5027013;28;20232;-62
2022/10/07 03:29:47;;;;;;;0.80;0.80;;;;;;;;;;5027577;28;20341;-63
2022/10/07 03:32:14;;;;;;;0.80;0.80;;;;;;;;;;5027351;28;20204;-62
2022/10/07 03:34:41;;;;;;;2.80;1.30;;;;;;;;;;5024008;28;20626;-61
2022/10/07 03:37:09;;;;;;;1.47;1.10;;;;;;;;;;5027476;28;20679;-63
2022/10/07 03:39:37;;;;;;;6.87;1.20;;;;;;;;;;5026456;28;20295;-62
2022/10/07 03:42:05;;;;;;;5.53;1.00;;;;;;;;;;5026311;28;20453;-62
2022/10/07 03:44:32;;;;;;;1.90;0.97;;;;;;;;;;5027173;28;20200;-62
2022/10/07 03:46:59;;;;;;;1.80;1.00;;;;;;;;;;5027676;28;20219;-62
2022/10/07 03:49:26;;;;;;;4.07;0.90;;;;;;;;;;5027046;28;20200;-62
2022/10/07 03:51:53;;;;;;;1.03;0.90;;;;;;;;;;5026984;28;20224;-62
2022/10/07 03:54:21;;;;;;;3.77;1.27;;;;;;;;;;5027074;28;20200;-63
2022/10/07 03:56:49;;;;;;;1.10;1.10;;;;;;;;;;5026960;28;20208;-61
2022/10/07 03:59:16;;;;;;;3.90;0.90;;;;;;;;;;5026866;28;20208;-62
2022/10/07 04:01:47;;;;;;;3.03;1.57;;;;;;;;;;5027210;28;20204;-62
2022/10/07 04:04:15;;;;;;;0.50;0.50;;;;;;;;;;5027298;28;20328;-63
2022/10/07 04:06:42;;;;;;;2.40;1.10;;;;;;;;;;5029392;28;20709;-62
2022/10/07 04:09:09;;;;;;;4.53;1.13;;;;;;;;;;5030552;28;20208;-61
2022/10/07 04:11:39;;;;;;;2.47;0.87;;;;;;;;;;5030989;28;20217;-62
2022/10/07 04:14:07;;;;;;;1.43;1.33;;;;;;;;;;5030804;28;20204;-62
2022/10/07 04:16:34;;;;;;;1.07;0.70;;;;;;;;;;5030804;28;20417;-62
2022/10/07 04:19:01;;;;;;;0.87;0.87;;;;;;;;;;5030768;28;20683;-61
2022/10/07 04:21:29;;;;;;;3.70;1.10;;;;;;;;;;5030474;28;20199;-62
2022/10/07 04:23:56;;;;;;;2.03;1.00;;;;;;;;;;5029924;28;20652;-62
2022/10/07 04:26:23;;;;;;;1.00;0.90;;;;;;;;;;5029359;28;20715;-61
2022/10/07 04:28:50;;;;;;;2.73;1.20;;;;;;;;;;5030468;28;20208;-61
2022/10/07 04:31:18;;;;;;;1.00;1.00;;;;;;;;;;5030157;28;20243;-61
2022/10/07 04:33:46;;;;;;;2.43;1.07;;;;;;;;;;5030788;28;20204;-62
2022/10/07 04:36:14;;;;;;;1.43;1.00;;;;;;;;;;5030018;28;20224;-62
2022/10/07 04:38:43;;;;;;;4.33;1.07;;;;;;;;;;5028181;28;20210;-62
2022/10/07 04:41:10;;;;;;;1.43;0.90;;;;;;;;;;5030201;28;20208;-61
2022/10/07 04:43:37;;;;;;;6.20;1.23;;;;;;;;;;5030276;28;20211;-61
2022/10/07 04:46:05;;;;;;;3.77;1.30;;;;;;;;;;5029987;28;20207;-61
2022/10/07 04:48:34;;;;;;;4.17;1.63;;;;;;;;;;5030293;28;20670;-62
2022/10/07 04:51:06;;;;;;;2.97;1.27;;;;;;;;;;5030135;28;20220;-62
2022/10/07 04:53:34;;;;;;;0.87;0.83;;;;;;;;;;5029991;28;20218;-62
2022/10/07 04:56:01;;;;;;;0.63;0.63;;;;;;;;;;5030217;28;20300;-62
2022/10/07 04:58:29;;;;;;;1.70;0.97;;;;;;;;;;5029873;28;20204;-62
2022/10/07 05:01:00;;;;;;;1.20;1.10;;;;;;;;;;5029431;28;20210;-62
2022/10/07 05:03:28;;;;;;;2.17;0.70;;;;;;;;;;5025777;28;20606;-62
2022/10/07 05:05:58;;;;;;;1.83;0.80;;;;;;;;;;5029810;28;20259;-62
2022/10/07 05:08:25;;;;;;;3.70;1.07;;;;;;;;;;5029864;28;20234;-62
2022/10/07 05:10:56;;;;;;;0.80;0.80;;;;;;;;;;5029675;28;20228;-62
2022/10/07 05:13:25;;;;;;;1.50;0.83;;;;;;;;;;5030355;28;20215;-61
2022/10/07 05:15:53;;;;;;;1.40;0.70;;;;;;;;;;5030346;28;20216;-62
2022/10/07 05:18:21;;;;;;;2.40;1.20;;;;;;;;;;5029313;28;20812;-61
2022/10/07 05:20:48;;;;;;;3.97;1.37;;;;;;;;;;5029555;28;20204;-61
2022/10/07 05:23:18;;;;;;;3.70;1.33;;;;;;;;;;5029337;28;20701;-62
2022/10/07 05:25:45;;;;;;;2.27;0.90;;;;;;;;;;5029093;28;20221;-62
2022/10/07 05:28:12;;;;;;;0.77;0.77;;;;;;;;;;5029490;28;20209;-61
2022/10/07 05:30:39;;;;;;;1.10;1.10;;;;;;;;;;5029578;28;20223;-61
2022/10/07 05:33:06;;;;;;;0.80;0.80;;;;;;;;;;5029264;28;20200;-61
2022/10/07 05:35:34;;;;;;;0.90;0.60;;;;;;;;;;5029087;28;20204;-61
2022/10/07 05:38:01;;;;;;;1.33;0.90;;;;;;;;;;5029285;28;20213;-62
2022/10/07 05:40:29;;;;;;;3.43;1.00;;;;;;;;;;5028810;28;20846;-62
2022/10/07 05:42:56;;;;;;;1.73;1.13;;;;;;;;;;5029434;28;20208;-62
2022/10/07 05:45:24;;;;;;;2.77;1.20;;;;;;;;;;5029649;28;20585;-62
2022/10/07 05:47:51;;;;;;;2.33;1.30;;;;;;;;;;5029046;28;20261;-62
2022/10/07 05:50:18;;;;;;;1.43;0.93;;;;;;;;;;5029305;28;20208;-62
2022/10/07 05:52:46;;;;;;;2.00;1.20;;;;;;;;;;5028992;28;20240;-62
2022/10/07 05:55:13;;;;;;;6.73;1.03;;;;;;;;;;5028741;28;20235;-62
2022/10/07 05:57:41;;;;;;;0.93;0.77;;;;;;;;;;5029063;28;20229;-61
2022/10/07 06:00:09;;;;;;;1.27;0.97;;;;;;;;;;5028836;28;20200;-61
2022/10/07 06:02:37;;;;;;;2.40;1.60;;;;;;;;;;5029266;28;20205;-61
2022/10/07 06:05:04;;;;;;;7.70;0.93;;;;;;;;;;5028218;28;20281;-61
2022/10/07 06:07:31;;;;;;;1.20;1.10;;;;;;;;;;5026967;28;20343;-62
2022/10/07 06:15:30;;;;;;;1.33;1.10;;;;;;;;;;5028877;28;20963;-62
2022/10/07 06:17:57;;;;;;;0.83;0.83;;;;;;;;;;5028490;28;20215;-61
2022/10/07 06:20:24;;;;;;;1.20;0.87;;;;;;;;;;5027887;28;20219;-61
2022/10/07 06:22:53;;;;;;;2.77;1.10;;;;;;;;;;5023166;28;20201;-61
2022/10/07 06:25:20;;;;;;;1.07;1.07;;;;;;;;;;5025011;28;20675;-61
2022/10/07 06:27:48;;;;;;;2.77;1.10;;;;;;;;;;5029116;28;20587;-61
2022/10/07 06:30:15;;;;;;;0.80;0.80;;;;;;;;;;5027680;28;20200;-62
2022/10/07 06:32:42;;;;;;;1.10;1.10;;;;;;;;;;5028930;28;20231;-63
2022/10/07 06:35:09;;;;;;;4.10;1.10;;;;;;;;;;5028664;28;20208;-63
2022/10/07 06:37:38;;;;;;;1.67;0.80;;;;;;;;;;5028917;28;20208;-63
2022/10/07 06:40:05;;;;;;;1.37;1.10;;;;;;;;;;5028154;28;20208;-60
2022/10/07 06:42:32;;;;;;;2.13;1.30;;;;;;;;;;5028449;28;20204;-60
2022/10/07 06:45:01;;;;;;;3.93;1.37;;;;;;;;;;5028402;28;20214;-60
2022/10/07 06:47:28;;;;;;;3.80;1.00;;;;;;;;;;5021554;28;20205;-60
2022/10/07 06:49:55;;;;;;;2.47;1.20;;;;;;;;;;5028623;28;20210;-60
2022/10/07 06:52:22;;;;;;;5.07;1.40;;;;;;;;;;5028249;28;20224;-60
2022/10/07 06:54:49;;;;;;;1.17;1.17;;;;;;;;;;5027855;28;20262;-61
2022/10/07 06:57:16;;;;;;;4.93;1.20;;;;;;;;;;5028896;28;20201;-60
2022/10/07 06:59:44;;;;;;;5.70;1.50;;;;;;;;;;5029106;28;20212;-59
2022/10/07 07:02:12;;;;;;;2.07;0.93;;;;;;;;;;5028109;28;20206;-60
2022/10/07 07:04:39;;;;;;;3.93;1.23;;;;;;;;;;5026775;28;20236;-59
2022/10/07 07:07:06;;;;;;;1.60;1.20;;;;;;;;;;5028834;28;20200;-59
2022/10/07 07:09:33;;;;;;;2.57;1.30;;;;;;;;;;5028319;28;20211;-60
2022/10/07 07:12:01;;;;;;;1.73;1.30;;;;;;;;;;5027914;28;20260;-63
2022/10/07 07:14:28;;;;;;;2.17;1.20;;;;;;;;;;5027297;28;20200;-60
2022/10/07 07:16:55;;;;;;;1.43;1.33;;;;;;;;;;5027989;28;20833;-60
2022/10/07 07:19:24;;;;;;;0.93;0.87;;;;;;;;;;5027754;28;20208;-61
2022/10/07 07:21:51;;;;;;;1.20;1.10;;;;;;;;;;5028111;28;20220;-60
2022/10/07 07:24:18;;;;;;;1.53;1.03;;;;;;;;;;5027982;28;20216;-60
2022/10/07 07:26:45;;;;;;;1.53;1.10;;;;;;;;;;5027555;28;20247;-61
2022/10/07 07:29:13;;;;;;;1.63;1.53;;;;;;;;;;5027913;28;20200;-60
2022/10/07 07:31:40;;;;;;;5.53;1.60;;;;;;;;;;5027794;28;20228;-60
2022/10/07 07:34:10;;;;;;;4.80;1.30;;;;;;;;;;5027773;28;20208;-60
2022/10/07 07:36:43;;;;;;;1.90;1.23;;;;;;;;;;5027499;28;20216;-60
2022/10/07 07:39:12;;;;;;;3.80;1.53;;;;;;;;;;5027441;28;20205;-60
2022/10/07 07:41:40;;;;;;;2.40;1.37;;;;;;;;;;5031501;28;20897;-59
2022/10/07 07:44:09;;;;;;;6.83;2.13;;;;;;;;;;5031034;28;20207;-65
2022/10/07 07:46:38;;;;;;;2.90;1.17;;;;;;;;;;5030911;28;20230;-60
2022/10/07 07:49:05;;;;;;;6.13;1.27;;;;;;;;;;5031965;28;20244;-59
2022/10/07 07:51:33;;;;;;;3.83;1.60;;;;;;;;;;5030196;28;20224;-61
2022/10/07 07:54:01;;;;;;;4.57;1.60;;;;;;;;;;5029724;28;20204;-63
2022/10/07 07:56:30;;;;;;;10.00;1.40;;;;;;;;;;5037706;28;20204;-61
2022/10/07 07:58:57;;;;;;;3.70;1.20;;;;;;;;;;5046559;28;20218;-61
2022/10/07 08:01:24;;;;;;;1.30;1.20;;;;;;;;;;5033578;28;20208;-61
2022/10/07 08:03:52;;;;;;;1.00;0.80;;;;;;;;;;5030062;28;20320;-61
2022/10/07 08:06:20;;;;;;;3.50;1.60;;;;;;;;;;5029966;28;20266;-61
2022/10/07 08:08:47;;;;;;;1.43;1.30;;;;;;;;;;5029592;28;20315;-61
2022/10/07 08:11:16;;;;;;;2.27;1.27;;;;;;;;;;5029554;28;20213;-60
2022/10/07 08:13:44;;;;;;;1.40;1.30;;;;;;;;;;5030469;28;20582;-61
2022/10/07 08:16:13;;;;;;;1.73;1.63;;;;;;;;;;5031117;28;20216;-60
2022/10/07 08:18:40;;;;;;;2.60;1.53;;;;;;;;;;5031088;28;20218;-61
2022/10/07 08:21:07;;;;;;;1.97;1.33;;;;;;;;;;5030751;28;20215;-63
2022/10/07 08:23:35;;;;;;;5.23;1.33;;;;;;;;;;5030758;28;20575;-61
2022/10/07 08:26:05;;;;;;;2.73;1.20;;;;;;;;;;5030905;28;20208;-62
2022/10/07 08:28:35;;;;;;;3.93;1.10;;;;;;;;;;5030690;28;20208;-61
2022/10/07 08:31:03;;;;;;;2.07;1.50;;;;;;;;;;5030841;28;20255;-63
2022/10/07 08:33:35;;;;;;;3.63;1.30;;;;;;;;;;5030846;28;20775;-63
2022/10/07 08:36:03;;;;;;;1.27;1.10;;;;;;;;;;5030898;28;20850;-60
2022/10/07 08:38:31;;;;;;;1.93;1.23;;;;;;;;;;5030740;28;20220;-62
2022/10/07 08:41:00;;;;;;;2.30;1.30;;;;;;;;;;5030230;28;20215;-62
2022/10/07 08:43:27;;;;;;;4.17;1.43;;;;;;;;;;5030913;28;20291;-62
2022/10/07 08:45:56;;;;;;;1.67;1.53;;;;;;;;;;5030451;28;20569;-62
2022/10/07 08:48:25;;;;;;;4.13;1.60;;;;;;;;;;5030652;28;20220;-62
2022/10/07 08:50:57;;;;;;;2.40;1.53;;;;;;;;;;5030651;28;20208;-62
2022/10/07 08:53:29;;;;;;;4.87;1.40;;;;;;;;;;5029430;28;20228;-63
2022/10/07 08:55:57;;;;;;;1.30;1.30;;;;;;;;;;5030577;28;20293;-62
2022/10/07 08:58:33;;;;;;;1.95;1.23;;;;;;;;;;5030546;28;20287;-62
2022/10/07 09:01:03;;;;;;;1.90;1.10;;;;;;;;;;5030323;28;20607;-60
2022/10/07 09:03:36;;;;;;;7.88;1.73;;;;;;;;;;5029619;28;20349;-59
2022/10/07 09:06:06;;;;;;;3.00;1.45;;;;;;;;;;5029725;28;20213;-62
2022/10/07 09:08:36;;;;;;;1.65;1.00;;;;;;;;;;5029621;28;20216;-63
2022/10/07 09:11:14;;;;;;;1.88;1.00;;;;;;;;;;5009957;28;20212;-61
2022/10/07 09:13:45;;;;;;;1.17;1.08;;;;;;;;;;5024213;28;20585;-60
2022/10/07 09:16:15;;;;;;;1.80;1.55;;;;;;;;;;5029560;28;20208;-61
2022/10/07 09:18:43;;;;;;;1.30;1.02;;;;;;;;;;5029201;28;20200;-61
2022/10/07 09:21:15;;;;;;;1.33;1.00;;;;;;;;;;5029359;28;20277;-61
2022/10/07 09:23:42;;;;;;;1.13;1.02;;;;;;;;;;5021003;28;20204;-61
2022/10/07 09:26:10;;;;;;;1.52;0.88;;;;;;;;;;5028989;28;20241;-61
2022/10/07 09:28:37;;;;;;;1.70;1.10;;;;;;;;;;5029594;28;20208;-62
2022/10/07 09:31:04;;;;;;;2.20;1.10;;;;;;;;;;5029618;28;20208;-61
2022/10/07 09:33:35;;;;;;;1.23;0.95;;;;;;;;;;5029291;28;20223;-62
2022/10/07 09:36:05;;;;;;;1.40;1.08;;;;;;;;;;5029406;28;20216;-61
2022/10/07 09:38:34;;;;;;;1.63;1.17;;;;;;;;;;5028808;28;20212;-61
2022/10/07 09:41:18;;;;;;;3.97;1.05;;;;;;;;;;5029262;28;20262;-61
2022/10/07 09:43:57;;;;;;;1.98;1.10;;;;;;;;;;5028777;28;20297;-62
2022/10/07 09:46:27;;;;;;;1.30;0.82;;;;;;;;;;5029087;28;20758;-62
2022/10/07 09:48:56;;;;;;;2.25;0.93;;;;;;;;;;5029202;28;20212;-61
2022/10/07 09:51:25;;;;;;;1.38;1.08;;;;;;;;;;5028495;28;20767;-61
2022/10/07 09:53:57;;;;;;;1.13;0.93;;;;;;;;;;5028626;28;21055;-63
2022/10/07 09:56:31;;;;;;;3.38;1.08;;;;;;;;;;5028592;28;20236;-61
2022/10/07 09:59:15;;;;;;;2.40;1.10;;;;;;;;;;5028919;28;20211;-63
2022/10/07 10:01:42;;;;;;;1.08;0.90;;;;;;;;;;5028597;28;20235;-61
2022/10/07 10:04:17;;;;;;;1.35;0.98;;;;;;;;;;5027612;28;20991;-62
2022/10/07 10:06:48;;;;;;;1.05;0.80;;;;;;;;;;5028534;28;20326;-61
2022/10/07 10:09:20;;;;;;;1.30;1.20;;;;;;;;;;5028150;28;20212;-62
2022/10/07 10:11:47;;;;;;;3.50;1.15;;;;;;;;;;5027850;28;20219;-62
2022/10/07 10:14:28;;;;;;;0.98;0.82;;;;;;;;;;5028469;28;20223;-62
2022/10/07 10:16:55;;;;;;;4.95;1.02;;;;;;;;;;5027105;28;20212;-61
2022/10/07 10:19:24;;;;;;;1.25;0.90;;;;;;;;;;5028250;28;20207;-62
2022/10/07 10:21:53;;;;;;;8.70;1.27;;;;;;;;;;5028345;28;20563;-62
2022/10/07 10:26:24;;;;;;;1.58;1.33;;;;;;;;;;5028057;28;20215;-62
2022/10/07 10:27:11;;;;;;;0.88;0.85;;;;;;;;;;5026851;28;20623;-64
2022/10/07 10:29:42;;;;;;;1.38;1.05;;;;;;;;;;5027282;28;20196;-64
2022/10/07 10:32:21;;;;;;;1.45;1.02;;;;;;;;;;5008175;28;20229;-64
2022/10/07 10:34:52;;;;;;;1.55;1.00;;;;;;;;;;5022933;28;20212;-64
2022/10/07 10:37:20;;;;;;;1.55;0.90;;;;;;;;;;5028164;28;20310;-64
2022/10/07 10:39:56;;;;;;;4.85;1.27;;;;;;;;;;5028205;28;20204;-65
2022/10/07 10:42:27;;;;;;;2.50;1.20;;;;;;;;;;5017627;28;20211;-63
2022/10/07 10:45:02;;;;;;;10.93;1.00;;;;;;;;;;5027364;28;20208;-64
2022/10/07 10:47:35;;;;;;;2.33;1.00;;;;;;;;;;5025217;28;20222;-64
2022/10/07 10:50:11;;;;;;;2.17;0.80;;;;;;;;;;5007953;28;20667;-64
2022/10/07 10:52:46;;;;;;;0.90;0.90;;;;;;;;;;5018517;28;20310;-64
2022/10/07 10:55:18;;;;;;;1.02;0.80;;;;;;;;;;5027079;28;20294;-64
2022/10/07 10:57:51;;;;;;;3.60;0.75;;;;;;;;;;5027075;28;20239;-64
2022/10/07 11:00:20;;;;;;;2.38;0.70;;;;;;;;;;5027381;28;20227;-64
2022/10/07 11:03:07;;;;;;;3.00;1.05;;;;;;;;;;5026709;28;20255;-65
2022/10/07 11:05:37;;;;;;;1.38;0.80;;;;;;;;;;5015527;28;20213;-65
2022/10/07 11:08:08;;;;;;;1.38;0.70;;;;;;;;;;5027293;28;20216;-65
2022/10/07 11:10:39;;;;;;;1.40;0.80;;;;;;;;;;5027238;28;20644;-64
2022/10/07 11:13:19;;;;;;;2.90;0.60;;;;;;;;;;5026701;28;20224;-64
2022/10/07 11:15:47;;;;;;;0.80;0.80;;;;;;;;;;5026656;28;20558;-64
2022/10/07 11:18:20;;;;;;;0.82;0.70;;;;;;;;;;5027119;28;20216;-64
2022/10/07 11:20:49;;;;;;;1.55;0.55;;;;;;;;;;5027233;28;20208;-64
2022/10/07 11:23:21;;;;;;;1.05;0.73;;;;;;;;;;5026857;28;20213;-64
2022/10/07 11:25:51;;;;;;;2.28;0.70;;;;;;;;;;5026464;28;20204;-68
2022/10/07 11:28:21;;;;;;;2.92;0.90;;;;;;;;;;5027354;28;20223;-64
2022/10/07 11:30:53;;;;;;;0.82;0.82;;;;;;;;;;5026725;28;20818;-65
2022/10/07 11:33:23;;;;;;;0.80;0.80;;;;;;;;;;5027068;28;20254;-64
2022/10/07 11:35:52;;;;;;;1.77;0.90;;;;;;;;;;5026802;28;20643;-64
2022/10/07 11:38:22;;;;;;;1.40;1.15;;;;;;;;;;5026762;28;20207;-64
2022/10/07 11:40:51;;;;;;;4.63;1.50;;;;;;;;;;5026750;28;20208;-64
2022/10/07 11:43:21;;;;;;;1.35;0.90;;;;;;;;;;5026784;28;20215;-64
2022/10/07 11:45:51;;;;;;;2.58;1.08;;;;;;;;;;5025902;28;20284;-64
2022/10/07 11:48:21;;;;;;;0.90;0.90;;;;;;;;;;5025936;28;20215;-64
2022/10/07 11:50:53;;;;;;;2.88;1.20;;;;;;;;;;5016138;28;20208;-63
2022/10/07 11:53:23;;;;;;;1.55;0.85;;;;;;;;;;5026483;28;20243;-64
2022/10/07 11:55:55;;;;;;;3.83;0.90;;;;;;;;;;5026699;28;20212;-64
2022/10/07 11:58:24;;;;;;;2.00;0.90;;;;;;;;;;5026402;28;20584;-64
2022/10/07 12:00:51;;;;;;;4.78;0.77;;;;;;;;;;5026810;28;20306;-64
2022/10/07 12:03:33;;;;;;;2.05;0.80;;;;;;;;;;5026591;28;20224;-64
2022/10/07 12:06:08;;;;;;;2.25;0.88;;;;;;;;;;5026548;28;20235;-64
2022/10/07 12:08:37;;;;;;;0.85;0.75;;;;;;;;;;5026329;28;20265;-64
2022/10/07 12:11:23;;;;;;;2.40;0.70;;;;;;;;;;5015921;28;20834;-64
2022/10/07 12:13:51;;;;;;;0.70;0.70;;;;;;;;;;5026680;28;20244;-64
2022/10/07 12:16:41;;;;;;;1.13;0.80;;;;;;;;;;5026360;28;20218;-64
2022/10/07 12:19:15;;;;;;;1.35;0.52;;;;;;;;;;5015121;28;20208;-64
2022/10/07 12:22:01;;;;;;;2.63;0.93;;;;;;;;;;5026423;28;20216;-63
2022/10/07 12:24:31;;;;;;;2.70;0.70;;;;;;;;;;5026281;28;20810;-65
2022/10/07 12:26:59;;;;;;;1.25;0.43;;;;;;;;;;5026921;28;20268;-64
2022/10/07 12:29:47;;;;;;;2.30;0.70;;;;;;;;;;5029513;28;20262;-67
2022/10/07 12:32:33;;;;;;;2.85;0.70;;;;;;;;;;5010647;28;20287;-65
2022/10/07 12:35:33;;;;;;;0.65;0.65;;;;;;;;;;5019097;28;20204;-66
2022/10/07 12:38:04;;;;;;;1.08;0.52;;;;;;;;;;5030010;28;20238;-64
2022/10/07 12:40:35;;;;;;;0.45;0.45;;;;;;;;;;5030036;28;20212;-64
2022/10/07 12:43:09;;;;;;;2.20;0.57;;;;;;;;;;5029604;28;20212;-64
2022/10/07 12:45:39;;;;;;;0.90;0.55;;;;;;;;;;5029565;28;20291;-64
2022/10/07 12:48:10;;;;;;;1.00;0.60;;;;;;;;;;5029544;28;20619;-64
2022/10/07 12:50:39;;;;;;;2.72;0.68;;;;;;;;;;5029639;28;20301;-64
2022/10/07 12:53:06;;;;;;;0.65;0.65;;;;;;;;;;5029694;28;20240;-64
2022/10/07 12:55:37;;;;;;;1.60;0.80;;;;;;;;;;5029645;28;20211;-65
2022/10/07 13:00:59;;;;;;;11.25;0.98;;;;;;;;;;5029394;28;20277;-64
2022/10/07 13:03:35;;;;;;;1.10;0.65;;;;;;;;;;5029586;28;20219;-63
2022/10/07 13:06:29;;;;;;;2.17;0.73;;;;;;;;;;5028459;28;20204;-64
2022/10/07 13:09:09;;;;;;;0.70;0.70;;;;;;;;;;5028189;28;20201;-60
2022/10/07 13:11:51;;;;;;;3.63;1.08;;;;;;;;;;5028566;28;20208;-68
2022/10/07 13:14:22;;;;;;;3.92;1.20;;;;;;;;;;5026402;28;20307;-62
2022/10/07 13:16:52;;;;;;;2.10;0.90;;;;;;;;;;5027284;28;20247;-60
2022/10/07 13:19:23;;;;;;;1.95;0.90;;;;;;;;;;5028935;28;20220;-62
2022/10/07 13:21:55;;;;;;;1.30;0.93;;;;;;;;;;5025113;28;20231;-60
2022/10/07 13:24:24;;;;;;;1.45;0.98;;;;;;;;;;5020011;28;20243;-60
2022/10/07 13:26:52;;;;;;;1.20;1.10;;;;;;;;;;5026335;28;20247;-60
2022/10/07 13:29:23;;;;;;;2.05;0.95;;;;;;;;;;5028364;28;20692;-62
2022/10/07 13:32:02;;;;;;;3.22;0.90;;;;;;;;;;5029090;28;20204;-62
2022/10/07 13:34:30;;;;;;;1.52;1.17;;;;;;;;;;5029093;28;20234;-61
2022/10/07 13:36:57;;;;;;;1.48;1.20;;;;;;;;;;5029235;28;20252;-60
2022/10/07 13:39:24;;;;;;;0.68;0.68;;;;;;;;;;5028942;28;20263;-60
2022/10/07 13:41:54;;;;;;;1.05;0.98;;;;;;;;;;5029087;28;20291;-61
2022/10/07 13:44:24;;;;;;;1.80;0.90;;;;;;;;;;5029224;28;20255;-61
2022/10/07 13:46:54;;;;;;;2.65;1.25;;;;;;;;;;5029610;28;20212;-61
2022/10/07 13:49:25;;;;;;;1.60;1.00;;;;;;;;;;5027561;28;20212;-61
2022/10/07 13:51:53;;;;;;;3.17;1.10;;;;;;;;;;5016878;28;20231;-61
2022/10/07 13:54:22;;;;;;;2.10;0.75;;;;;;;;;;5028921;28;20384;-61
2022/10/07 13:56:50;;;;;;;1.88;0.98;;;;;;;;;;5026824;28;20208;-61
2022/10/07 13:59:17;;;;;;;1.33;0.80;;;;;;;;;;5028914;28;20215;-61
2022/10/07 14:01:47;;;;;;;5.25;0.70;;;;;;;;;;5028234;28;20232;-61
2022/10/07 14:04:22;;;;;;;0.88;0.82;;;;;;;;;;5028536;28;20993;-60
2022/10/07 14:06:51;;;;;;;0.80;0.80;;;;;;;;;;5027985;28;20212;-60
2022/10/07 14:09:19;;;;;;;0.50;0.50;;;;;;;;;;5028606;28;20211;-60
2022/10/07 14:11:47;;;;;;;0.85;0.77;;;;;;;;;;5027373;28;20208;-60
2022/10/07 14:14:21;;;;;;;2.17;0.82;;;;;;;;;;5024219;28;20232;-61
2022/10/07 14:16:55;;;;;;;1.38;0.68;;;;;;;;;;5027922;28;20215;-64
2022/10/07 14:19:22;;;;;;;0.63;0.63;;;;;;;;;;5028781;28;20207;-62
2022/10/07 14:21:49;;;;;;;1.92;0.73;;;;;;;;;;5027535;28;20213;-62
2022/10/07 14:24:19;;;;;;;2.10;0.90;;;;;;;;;;5029217;28;20204;-64
2022/10/07 14:26:47;;;;;;;5.28;0.80;;;;;;;;;;5028285;28;20722;-63
2022/10/07 14:29:31;;;;;;;0.40;0.40;;;;;;;;;;5026699;28;20594;-61
2022/10/07 14:37:38;;;;;;;0.82;0.82;;;;;;;;;;5027976;28;20595;-61
2022/10/07 14:40:16;;;;;;;0.70;0.70;;;;;;;;;;5027756;28;20583;-61
2022/10/07 14:42:43;;;;;;;1.85;0.75;;;;;;;;;;5027557;28;20211;-63
2022/10/07 14:45:14;;;;;;;2.38;1.00;;;;;;;;;;5027807;28;20200;-64
2022/10/07 14:47:44;;;;;;;0.60;0.60;;;;;;;;;;5027175;28;20201;-61
2022/10/07 14:50:12;;;;;;;0.77;0.60;;;;;;;;;;5027807;28;20701;-63
2022/10/07 14:52:39;;;;;;;1.33;0.70;;;;;;;;;;5026815;28;20212;-63
2022/10/07 14:55:08;;;;;;;0.57;0.57;;;;;;;;;;5028074;28;20234;-63
2022/10/07 14:57:35;;;;;;;1.35;0.50;;;;;;;;;;5028127;28;20303;-63
2022/10/07 15:00:03;;;;;;;1.95;1.00;;;;;;;;;;5028618;28;20204;-60
2022/10/07 15:02:30;;;;;;;1.40;0.60;;;;;;;;;;5027825;28;20278;-64
2022/10/07 15:04:58;;;;;;;2.13;0.70;;;;;;;;;;5027835;28;20675;-63
2022/10/07 15:07:25;;;;;;;0.35;0.30;;;;;;;;;;5026793;28;20434;-63
2022/10/07 15:09:52;;;;;;;3.60;0.80;;;;;;;;;;5027114;28;20220;-63
2022/10/07 15:12:19;;;;;;;0.85;0.70;;;;;;;;;;5030189;28;20215;-63
2022/10/07 15:14:46;;;;;;;0.47;0.47;;;;;;;;;;5024578;28;20228;-63